createdAt,value
2018-01-18T00:01:32.305Z,92.80
2018-01-18T00:03:58.990Z,92.00
2018-01-18T00:06:25.293Z,92.00
2018-01-18T00:08:51.517Z,91.00
2018-01-18T00:11:18.537Z,90.40
2018-01-18T00:13:45.135Z,90.70
2018-01-18T00:16:11.375Z,90.80
2018-01-18T00:18:37.719Z,90.90
2018-01-18T00:21:03.987Z,90.40
2018-01-18T00:23:30.248Z,90.30
2018-01-18T00:25:56.501Z,90.00
2018-01-18T00:28:22.761Z,89.40
2018-01-18T00:30:49.042Z,90.00
2018-01-18T00:33:15.252Z,89.80
2018-01-18T00:35:41.511Z,89.50
2018-01-18T00:38:07.740Z,88.90
2018-01-18T00:40:33.988Z,88.50
2018-01-18T00:43:00.589Z,89.00
2018-01-18T00:45:26.840Z,89.00
2018-01-18T00:47:53.045Z,89.40
2018-01-18T00:50:19.282Z,89.90
2018-01-18T00:52:45.944Z,90.50
2018-01-18T00:55:12.559Z,91.30
2018-01-18T00:57:38.824Z,91.30
2018-01-18T01:00:05.024Z,91.40
2018-01-18T01:02:31.313Z,92.50
2018-01-18T01:04:57.515Z,92.90
2018-01-18T01:07:24.113Z,92.70
2018-01-18T01:09:50.349Z,92.70
2018-01-18T01:12:16.625Z,93.20
2018-01-18T01:14:42.866Z,92.60
2018-01-18T01:17:09.096Z,92.60
2018-01-18T01:19:35.323Z,92.40
2018-01-18T01:22:01.552Z,92.40
2018-01-18T01:24:27.835Z,92.50
2018-01-18T01:26:54.438Z,91.70
2018-01-18T01:29:20.685Z,91.70
2018-01-18T01:31:46.890Z,91.50
2018-01-18T01:34:13.151Z,91.10
2018-01-18T01:36:39.399Z,90.60
2018-01-18T01:39:05.638Z,90.00
2018-01-18T01:41:31.864Z,89.90
2018-01-18T01:43:58.065Z,89.90
2018-01-18T01:46:24.333Z,90.30
2018-01-18T01:48:50.520Z,90.30
2018-01-18T01:51:16.749Z,90.00
2018-01-18T01:53:42.969Z,89.70
2018-01-18T01:56:09.195Z,90.00
2018-01-18T01:58:35.446Z,89.80
2018-01-18T02:01:01.665Z,89.10
2018-01-18T02:03:27.945Z,89.80
2018-01-18T02:05:54.215Z,89.70
2018-01-18T02:08:20.571Z,89.60
2018-01-18T02:10:46.853Z,89.50
2018-01-18T02:13:13.093Z,89.20
2018-01-18T02:15:39.771Z,89.00
2018-01-18T02:18:06.050Z,89.00
2018-01-18T02:20:32.298Z,88.40
2018-01-18T02:22:58.874Z,88.80
2018-01-18T02:25:25.133Z,88.80
2018-01-18T02:27:51.425Z,88.90
2018-01-18T02:30:17.639Z,88.00
2018-01-18T02:32:43.880Z,88.30
2018-01-18T02:35:10.081Z,88.30
2018-01-18T02:37:36.665Z,89.20
2018-01-18T02:40:02.989Z,89.20
2018-01-18T02:42:29.240Z,89.50
2018-01-18T02:44:55.541Z,89.60
2018-01-18T02:47:21.732Z,89.50
2018-01-18T02:49:48.033Z,90.60
2018-01-18T02:52:14.303Z,90.80
2018-01-18T02:54:40.536Z,90.90
2018-01-18T02:57:06.737Z,90.80
2018-01-18T02:59:33.386Z,90.60
2018-01-18T03:01:59.647Z,90.60
2018-01-18T03:04:26.152Z,90.50
2018-01-18T03:06:52.339Z,90.40
2018-01-18T03:09:18.564Z,90.60
2018-01-18T03:11:44.864Z,90.40
2018-01-18T03:14:11.097Z,89.50
2018-01-18T03:16:37.347Z,89.60
2018-01-18T03:19:03.996Z,90.30
2018-01-18T03:21:30.644Z,90.50
2018-01-18T03:23:57.277Z,90.00
2018-01-18T03:26:23.538Z,90.20
2018-01-18T03:28:49.770Z,90.50
2018-01-18T03:31:15.979Z,90.30
2018-01-18T03:33:42.604Z,90.00
2018-01-18T03:36:08.855Z,90.00
2018-01-18T03:38:35.488Z,90.00
2018-01-18T03:41:02.236Z,90.30
2018-01-18T03:43:28.448Z,90.40
2018-01-18T03:45:54.766Z,90.10
2018-01-18T03:48:21.032Z,90.50
2018-01-18T03:50:47.278Z,90.60
2018-01-18T03:53:13.552Z,90.90
2018-01-18T03:55:39.767Z,90.30
2018-01-18T03:58:06.029Z,90.80
2018-01-18T04:00:32.321Z,90.40
2018-01-18T04:02:58.598Z,91.00
2018-01-18T04:05:24.820Z,90.70
2018-01-18T04:07:51.032Z,90.50
2018-01-18T04:10:17.696Z,90.20
2018-01-18T04:12:43.923Z,90.20
2018-01-18T04:15:10.600Z,90.20
2018-01-18T04:17:36.997Z,90.20
2018-01-18T04:20:03.409Z,90.40
2018-01-18T04:22:29.999Z,90.60
2018-01-18T04:24:56.221Z,90.60
2018-01-18T04:27:22.496Z,90.50
2018-01-18T04:29:49.067Z,90.40
2018-01-18T04:32:15.324Z,90.40
2018-01-18T04:34:41.580Z,90.80
2018-01-18T04:37:07.874Z,90.60
2018-01-18T04:39:34.108Z,91.30
2018-01-18T04:42:00.403Z,91.20
2018-01-18T04:44:26.611Z,91.60
2018-01-18T04:46:52.848Z,91.70
2018-01-18T04:49:19.170Z,92.60
2018-01-18T04:51:45.760Z,93.30
2018-01-18T04:54:12.391Z,92.60
2018-01-18T04:56:38.628Z,92.60
2018-01-18T04:59:04.890Z,92.40
2018-01-18T05:01:31.113Z,91.70
2018-01-18T05:03:57.420Z,92.60
2018-01-18T05:06:23.804Z,91.90
2018-01-18T05:08:50.037Z,91.80
2018-01-18T05:11:16.267Z,91.20
2018-01-18T05:13:42.545Z,91.10
2018-01-18T05:16:08.784Z,90.60
2018-01-18T05:18:35.055Z,91.20
2018-01-18T05:21:01.300Z,91.30
2018-01-18T05:23:27.586Z,90.20
2018-01-18T05:25:54.229Z,91.30
2018-01-18T05:28:20.851Z,90.50
2018-01-18T05:30:47.574Z,91.00
2018-01-18T05:33:13.816Z,91.00
2018-01-18T05:35:40.098Z,90.80
2018-01-18T05:38:06.322Z,91.20
2018-01-18T05:40:32.555Z,91.40
2018-01-18T05:42:58.847Z,90.90
2018-01-18T05:45:25.428Z,91.40
2018-01-18T05:47:51.684Z,91.30
2018-01-18T05:50:17.884Z,91.00
2018-01-18T05:52:44.145Z,91.80
2018-01-18T05:55:10.379Z,91.20
2018-01-18T05:57:36.655Z,90.90
2018-01-18T06:00:03.010Z,90.50
2018-01-18T06:02:29.207Z,90.70
2018-01-18T06:04:55.492Z,91.40
2018-01-18T06:07:21.761Z,90.70
2018-01-18T06:09:48.907Z,90.70
2018-01-18T06:12:15.106Z,90.80
2018-01-18T06:14:41.341Z,90.50
2018-01-18T06:17:08.009Z,90.20
2018-01-18T06:19:34.237Z,90.20
2018-01-18T06:22:00.486Z,90.30
2018-01-18T06:24:26.693Z,90.10
2018-01-18T06:26:52.980Z,90.00
2018-01-18T06:29:19.580Z,89.30
2018-01-18T06:31:45.799Z,89.30
2018-01-18T06:34:12.030Z,89.50
2018-01-18T06:36:38.213Z,89.80
2018-01-18T06:39:04.486Z,89.90
2018-01-18T06:41:30.770Z,89.80
2018-01-18T06:43:57.396Z,89.80
2018-01-18T06:46:23.616Z,89.80
2018-01-18T06:48:49.849Z,90.00
2018-01-18T06:51:16.062Z,90.50
2018-01-18T06:53:42.292Z,90.90
2018-01-18T06:56:08.526Z,90.50
2018-01-18T06:58:34.757Z,90.60
2018-01-18T07:01:01.007Z,90.20
2018-01-18T07:03:27.610Z,91.10
2018-01-18T07:05:53.851Z,91.10
2018-01-18T07:08:20.127Z,90.40
2018-01-18T07:10:46.319Z,90.70
2018-01-18T07:13:12.993Z,91.30
2018-01-18T07:15:39.257Z,91.30
2018-01-18T07:18:06.327Z,92.40
2018-01-18T07:20:32.537Z,92.00
2018-01-18T07:22:59.588Z,91.60
2018-01-18T07:25:25.832Z,91.70
2018-01-18T07:27:59.074Z,92.60
2018-01-18T07:30:25.308Z,91.50
2018-01-18T07:32:51.559Z,91.80
2018-01-18T07:35:18.059Z,92.30
2018-01-18T07:37:44.264Z,92.30
2018-01-18T07:40:10.896Z,93.10
2018-01-18T07:42:37.491Z,93.50
2018-01-18T07:45:03.739Z,93.50
2018-01-18T07:47:29.955Z,93.60
2018-01-18T07:49:56.160Z,94.10
2018-01-18T07:52:22.517Z,93.60
2018-01-18T07:54:49.755Z,93.80
2018-01-18T07:57:22.141Z,93.90
2018-01-18T07:59:48.425Z,93.90
2018-01-18T08:02:14.695Z,94.00
2018-01-18T08:04:40.916Z,94.30
2018-01-18T08:07:07.163Z,94.30
2018-01-18T08:09:33.429Z,94.60
2018-01-18T08:11:59.612Z,94.80
2018-01-18T08:14:25.890Z,94.70
2018-01-18T08:16:52.092Z,94.50
2018-01-18T08:19:18.688Z,94.10
2018-01-18T08:21:44.924Z,94.10
2018-01-18T08:24:11.160Z,94.20
2018-01-18T08:26:37.392Z,93.60
2018-01-18T08:29:03.625Z,93.80
2018-01-18T08:31:29.863Z,93.80
2018-01-18T08:33:56.404Z,93.40
2018-01-18T08:36:23.040Z,92.40
2018-01-18T08:38:49.274Z,92.40
2018-01-18T08:41:15.855Z,92.20
2018-01-18T08:43:42.079Z,92.20
2018-01-18T08:46:08.369Z,91.60
2018-01-18T08:48:34.614Z,91.70
2018-01-18T08:51:00.834Z,91.20
2018-01-18T08:53:27.110Z,90.20
2018-01-18T08:55:53.334Z,90.70
2018-01-18T08:58:19.638Z,90.70
2018-01-18T09:00:45.909Z,90.00
2018-01-18T09:03:12.124Z,89.90
2018-01-18T09:05:38.382Z,89.40
2018-01-18T09:08:04.964Z,89.20
2018-01-18T09:10:31.241Z,89.20
2018-01-18T09:12:58.017Z,88.80
2018-01-18T09:15:24.226Z,89.10
2018-01-18T09:17:52.203Z,88.90
2018-01-18T09:20:18.899Z,88.90
2018-01-18T09:22:45.154Z,87.90
2018-01-18T09:25:11.768Z,87.30
2018-01-18T09:27:38.028Z,87.30
2018-01-18T09:30:04.632Z,87.70
2018-01-18T09:32:30.848Z,87.70
2018-01-18T09:34:57.059Z,87.80
2018-01-18T09:37:23.347Z,87.30
2018-01-18T09:39:49.969Z,86.60
2018-01-18T09:42:16.213Z,86.60
2018-01-18T09:44:43.056Z,86.00
2018-01-18T09:47:09.284Z,86.90
2018-01-18T09:49:35.599Z,87.10
2018-01-18T09:52:01.840Z,86.90
2018-01-18T09:54:28.463Z,86.50
2018-01-18T09:56:54.701Z,86.50
2018-01-18T09:59:21.344Z,86.50
2018-01-18T10:01:47.965Z,87.20
2018-01-18T10:04:14.212Z,87.20
2018-01-18T10:06:40.806Z,85.80
2018-01-18T10:09:07.029Z,85.80
2018-01-18T10:11:33.293Z,85.90
2018-01-18T10:13:59.504Z,85.30
2018-01-18T10:16:25.721Z,86.70
2018-01-18T10:18:51.963Z,86.20
2018-01-18T10:21:18.169Z,87.10
2018-01-18T10:23:44.394Z,86.20
2018-01-18T10:26:10.704Z,86.60
2018-01-18T10:28:36.973Z,87.50
2018-01-18T10:31:03.258Z,86.80
2018-01-18T10:33:29.532Z,86.40
2018-01-18T10:35:55.736Z,85.10
2018-01-18T10:38:21.976Z,83.80
2018-01-18T10:40:48.260Z,83.50
2018-01-18T10:43:14.591Z,84.20
2018-01-18T10:45:40.841Z,84.20
2018-01-18T10:48:07.059Z,84.10
2018-01-18T10:50:33.306Z,84.40
2018-01-18T10:52:59.529Z,84.30
2018-01-18T10:55:25.748Z,84.60
2018-01-18T10:57:51.944Z,85.10
2018-01-18T11:00:18.257Z,84.30
2018-01-18T11:02:44.612Z,85.10
2018-01-18T11:05:10.832Z,85.60
2018-01-18T11:07:37.463Z,84.00
2018-01-18T11:10:03.694Z,84.00
2018-01-18T11:12:29.964Z,84.70
2018-01-18T11:14:56.168Z,84.60
2018-01-18T11:17:22.404Z,85.00
2018-01-18T11:19:48.628Z,85.40
2018-01-18T11:22:14.897Z,85.90
2018-01-18T11:24:41.102Z,85.90
2018-01-18T11:27:07.369Z,85.60
2018-01-18T11:29:33.641Z,85.40
2018-01-18T11:31:59.865Z,85.70
2018-01-18T11:34:26.141Z,85.10
2018-01-18T11:36:52.386Z,85.10
2018-01-18T11:39:18.607Z,84.80
2018-01-18T11:41:44.852Z,84.90
2018-01-18T11:44:11.066Z,85.30
2018-01-18T11:46:37.262Z,85.80
2018-01-18T11:49:03.490Z,85.20
2018-01-18T11:51:29.704Z,85.80
2018-01-18T11:53:56.801Z,86.40
2018-01-18T11:56:23.028Z,85.70
2018-01-18T11:58:49.316Z,86.40
2018-01-18T12:01:15.596Z,86.60
2018-01-18T12:03:41.811Z,85.90
2018-01-18T12:06:08.024Z,85.20
2018-01-18T12:08:34.277Z,85.20
2018-01-18T12:11:00.942Z,84.20
2018-01-18T12:13:27.157Z,84.20
2018-01-18T12:15:53.750Z,83.40
2018-01-18T12:18:20.003Z,83.40
2018-01-18T12:20:46.284Z,83.20
2018-01-18T12:23:12.521Z,82.60
2018-01-18T12:25:38.765Z,82.90
2018-01-18T12:28:04.997Z,83.70
2018-01-18T12:30:31.241Z,83.70
2018-01-18T12:32:57.472Z,83.90
2018-01-18T12:35:23.678Z,84.40
2018-01-18T12:37:49.895Z,84.40
2018-01-18T12:40:17.037Z,84.00
2018-01-18T12:42:43.257Z,84.20
2018-01-18T12:45:09.514Z,84.10
2018-01-18T12:47:35.720Z,84.40
2018-01-18T12:50:01.947Z,84.60
2018-01-18T12:52:28.184Z,85.10
2018-01-18T12:54:54.444Z,84.80
2018-01-18T12:57:20.688Z,84.50
2018-01-18T12:59:47.263Z,85.00
2018-01-18T13:02:13.581Z,85.00
2018-01-18T13:04:39.852Z,85.10
2018-01-18T13:07:06.087Z,85.10
2018-01-18T13:09:32.307Z,84.60
2018-01-18T13:11:58.585Z,84.60
2018-01-18T13:14:25.483Z,84.80
2018-01-18T13:16:51.734Z,84.50
2018-01-18T13:19:17.961Z,85.30
2018-01-18T13:21:44.172Z,85.00
2018-01-18T13:24:10.426Z,84.80
2018-01-18T13:26:37.025Z,85.00
2018-01-18T13:29:03.242Z,85.00
2018-01-18T13:31:29.513Z,85.00
2018-01-18T13:33:55.742Z,84.50
2018-01-18T13:36:21.974Z,84.80
2018-01-18T13:38:48.552Z,85.00
2018-01-18T13:41:14.825Z,85.10
2018-01-18T13:43:41.042Z,85.10
2018-01-18T13:46:07.366Z,85.10
2018-01-18T13:48:33.602Z,85.10
2018-01-18T13:50:59.840Z,85.20
2018-01-18T13:53:26.880Z,86.10
2018-01-18T13:55:53.084Z,85.80
2018-01-18T13:58:19.362Z,86.20
2018-01-18T14:00:45.644Z,86.40
2018-01-18T14:03:11.996Z,85.90
2018-01-18T14:05:38.266Z,86.00
2018-01-18T14:08:04.493Z,86.40
2018-01-18T14:10:30.744Z,85.90
2018-01-18T14:13:03.888Z,86.00
2018-01-18T14:15:30.122Z,85.40
2018-01-18T14:17:56.307Z,85.00
2018-01-18T14:20:22.546Z,85.00
2018-01-18T14:22:48.766Z,85.10
2018-01-18T14:25:14.995Z,85.70
2018-01-18T14:27:41.219Z,85.70
2018-01-18T14:30:07.410Z,85.70
2018-01-18T14:32:33.693Z,85.90
2018-01-18T14:34:59.942Z,85.70
2018-01-18T14:37:26.167Z,85.50
2018-01-18T14:39:52.524Z,85.60
2018-01-18T14:42:19.163Z,85.30
2018-01-18T14:44:45.791Z,85.00
2018-01-18T14:47:12.379Z,84.70
2018-01-18T14:49:38.657Z,84.70
2018-01-18T14:52:05.299Z,84.20
2018-01-18T14:54:32.390Z,84.20
2018-01-18T14:56:58.651Z,84.50
2018-01-18T14:59:24.932Z,84.70
2018-01-18T15:01:52.249Z,85.10
2018-01-18T15:04:19.811Z,85.10
2018-01-18T15:06:46.428Z,85.20
2018-01-18T15:09:12.700Z,85.20
2018-01-18T15:11:39.227Z,85.30
2018-01-18T15:14:05.534Z,85.30
2018-01-18T15:16:32.147Z,85.80
2018-01-18T15:18:58.407Z,85.80
2018-01-18T15:21:24.695Z,85.90
2018-01-18T15:23:50.955Z,86.40
2018-01-18T15:26:17.590Z,86.80
2018-01-18T15:28:44.321Z,87.50
2018-01-18T15:31:10.525Z,87.50
2018-01-18T15:33:37.843Z,90.10
2018-01-18T15:36:04.091Z,91.10
2018-01-18T15:38:30.298Z,92.60
2018-01-18T15:40:56.583Z,92.50
2018-01-18T15:43:22.814Z,93.50
2018-01-18T15:45:49.093Z,94.00
2018-01-18T15:48:15.322Z,94.60
2018-01-18T15:50:41.595Z,94.90
2018-01-18T15:53:07.866Z,95.90
2018-01-18T15:55:34.252Z,96.30
2018-01-18T15:58:01.596Z,95.50
2018-01-18T16:00:28.021Z,96.00
2018-01-18T16:02:54.301Z,96.10
2018-01-18T16:05:20.918Z,96.50
2018-01-18T16:07:47.185Z,96.50
2018-01-18T16:10:13.555Z,95.70
2018-01-18T16:12:39.835Z,96.70
2018-01-18T16:15:06.097Z,96.40
2018-01-18T16:17:32.384Z,96.90
2018-01-18T16:19:59.945Z,96.00
2018-01-18T16:22:26.335Z,96.00
2018-01-18T16:24:52.625Z,96.50
2018-01-18T16:27:18.879Z,96.00
2018-01-18T16:29:45.183Z,96.50
2018-01-18T16:32:11.439Z,96.10
2018-01-18T16:34:37.847Z,96.20
2018-01-18T16:37:04.139Z,96.90
2018-01-18T16:39:30.783Z,97.10
2018-01-18T16:41:57.453Z,96.90
2018-01-18T16:44:23.690Z,96.90
2018-01-18T16:46:49.999Z,97.20
2018-01-18T16:49:16.298Z,96.50
2018-01-18T16:51:42.572Z,96.50
2018-01-18T16:54:09.529Z,97.30
2018-01-18T16:56:35.832Z,96.50
2018-01-18T16:59:02.170Z,96.60
2018-01-18T17:01:28.454Z,96.20
2018-01-18T17:03:54.759Z,96.80
2018-01-18T17:06:20.992Z,96.80
2018-01-18T17:08:47.253Z,97.20
2018-01-18T17:11:14.149Z,96.90
2018-01-18T17:13:40.404Z,96.70
2018-01-18T17:16:06.700Z,96.70
2018-01-18T17:18:33.009Z,97.10
2018-01-18T17:20:59.299Z,96.90
2018-01-18T17:23:25.555Z,97.40
2018-01-18T17:25:52.315Z,97.40
2018-01-18T17:28:18.636Z,97.30
2018-01-18T17:30:44.897Z,96.90
2018-01-18T17:33:11.193Z,96.80
2018-01-18T17:35:37.426Z,97.40
2018-01-18T17:38:03.747Z,97.00
2018-01-18T17:40:30.378Z,97.20
2018-01-18T17:42:56.988Z,97.10
2018-01-18T17:45:25.076Z,97.10
2018-01-18T17:47:51.588Z,96.90
2018-01-18T17:50:17.836Z,97.30
2018-01-18T17:52:44.109Z,97.20
2018-01-18T17:55:10.406Z,97.40
2018-01-18T17:57:36.653Z,97.40
2018-01-18T18:00:03.058Z,97.40
2018-01-18T18:02:29.368Z,97.40
2018-01-18T18:04:55.660Z,97.20
2018-01-18T18:07:22.767Z,97.40
2018-01-18T18:09:48.999Z,95.50
2018-01-18T18:12:15.626Z,96.10
2018-01-18T18:14:42.427Z,96.10
2018-01-18T18:17:08.663Z,95.40
2018-01-18T18:19:34.883Z,94.40
2018-01-18T18:22:01.170Z,96.00
2018-01-18T18:24:27.491Z,96.50
2018-01-18T18:26:54.158Z,95.90
2018-01-18T18:29:20.551Z,95.90
2018-01-18T18:31:47.437Z,96.30
2018-01-18T18:34:20.731Z,96.40
2018-01-18T18:36:47.119Z,95.60
2018-01-18T18:39:13.427Z,95.90
2018-01-18T18:41:39.829Z,95.30
2018-01-18T18:44:06.159Z,94.50
2018-01-18T18:46:32.609Z,93.20
2018-01-18T18:48:58.932Z,95.10
2018-01-18T18:51:25.231Z,94.40
2018-01-18T18:53:51.909Z,93.60
2018-01-18T18:56:18.208Z,93.60
2018-01-18T18:58:44.475Z,94.00
2018-01-18T19:01:11.510Z,92.40
2018-01-18T19:03:37.761Z,93.40
2018-01-18T19:06:04.276Z,93.10
2018-01-18T19:08:30.664Z,92.90
2018-01-18T19:10:57.360Z,93.10
2018-01-18T19:13:23.716Z,93.00
2018-01-18T19:15:50.061Z,92.70
2018-01-18T19:18:16.352Z,94.10
2018-01-18T19:20:42.653Z,93.80
2018-01-18T19:23:08.966Z,94.10
2018-01-18T19:25:35.272Z,93.60
2018-01-18T19:28:01.959Z,93.40
2018-01-18T19:30:28.284Z,93.40
2018-01-18T19:32:54.610Z,92.10
2018-01-18T19:35:21.576Z,93.00
2018-01-18T19:37:48.810Z,91.90
2018-01-18T19:40:15.113Z,92.40
2018-01-18T19:42:41.501Z,93.60
2018-01-18T19:45:07.775Z,92.70
2018-01-18T19:47:34.479Z,93.00
2018-01-18T19:50:00.821Z,93.00
2018-01-18T19:52:27.128Z,93.00
2018-01-18T19:54:53.947Z,91.80
2018-01-18T19:57:20.271Z,93.10
2018-01-18T19:59:46.568Z,92.80
2018-01-18T20:02:13.207Z,92.80
2018-01-18T20:04:40.129Z,92.40
2018-01-18T20:07:06.425Z,92.40
2018-01-18T20:09:32.734Z,91.70
2018-01-18T20:11:59.028Z,91.20
2018-01-18T20:14:25.338Z,91.80
2018-01-18T20:16:51.680Z,91.60
2018-01-18T20:19:18.087Z,91.60
2018-01-18T20:21:44.524Z,91.60
2018-01-18T20:24:10.844Z,90.60
2018-01-18T20:26:37.175Z,90.30
2018-01-18T20:29:03.552Z,90.00
2018-01-18T20:31:30.296Z,89.80
2018-01-18T20:33:57.013Z,90.90
2018-01-18T20:36:23.375Z,90.90
2018-01-18T20:38:49.774Z,91.30
2018-01-18T20:41:16.159Z,90.20
2018-01-18T20:43:42.446Z,91.20
2018-01-18T20:46:08.850Z,91.30
2018-01-18T20:48:36.036Z,91.30
2018-01-18T20:51:02.728Z,91.80
2018-01-18T20:53:29.042Z,91.80
2018-01-18T20:55:55.386Z,91.60
2018-01-18T20:58:21.808Z,90.90
2018-01-18T21:00:48.095Z,91.80
2018-01-18T21:03:14.757Z,90.90
2018-01-18T21:05:41.095Z,90.90
2018-01-18T21:08:07.381Z,91.30
2018-01-18T21:10:33.758Z,91.80
2018-01-18T21:13:00.004Z,91.30
2018-01-18T21:15:26.346Z,91.60
2018-01-18T21:17:52.669Z,92.60
2018-01-18T21:20:18.985Z,91.70
2018-01-18T21:22:45.307Z,91.60
2018-01-18T21:25:11.589Z,91.80
2018-01-18T21:27:38.265Z,91.40
2018-01-18T21:30:04.582Z,91.40
2018-01-18T21:32:31.294Z,90.90
2018-01-18T21:34:57.559Z,90.90
2018-01-18T21:37:23.852Z,91.30
2018-01-18T21:39:50.112Z,90.90
2018-01-18T21:42:16.774Z,91.40
2018-01-18T21:44:43.596Z,91.40
2018-01-18T21:47:09.858Z,91.60
2018-01-18T21:49:36.109Z,91.50
2018-01-18T21:52:02.376Z,91.40
2018-01-18T21:54:28.676Z,91.40
2018-01-18T21:56:54.955Z,91.70
2018-01-18T21:59:21.218Z,91.80
2018-01-18T22:01:47.426Z,91.50
2018-01-18T22:04:13.642Z,91.50
2018-01-18T22:06:39.849Z,91.70
2018-01-18T22:09:13.598Z,91.90
2018-01-18T22:11:40.319Z,91.50
2018-01-18T22:14:06.571Z,91.50
2018-01-18T22:16:32.872Z,91.60
2018-01-18T22:18:59.150Z,91.50
2018-01-18T22:21:25.380Z,91.40
2018-01-18T22:23:51.608Z,91.10
2018-01-18T22:26:17.845Z,91.60
2018-01-18T22:28:44.063Z,90.50
2018-01-18T22:31:10.341Z,90.80
2018-01-18T22:33:36.559Z,91.30
2018-01-18T22:36:02.807Z,91.80
2018-01-18T22:38:29.113Z,92.10
2018-01-18T22:40:56.022Z,92.20
2018-01-18T22:43:22.323Z,91.50
2018-01-18T22:45:48.561Z,91.80
2018-01-18T22:48:14.843Z,92.60
2018-01-18T22:50:41.200Z,92.30
2018-01-18T22:53:07.462Z,92.60
2018-01-18T22:55:33.735Z,92.70
2018-01-18T22:58:00.066Z,93.50
2018-01-18T23:00:26.363Z,92.30
2018-01-18T23:02:52.612Z,92.10
2018-01-18T23:05:19.184Z,92.90
2018-01-18T23:07:45.465Z,92.90
2018-01-18T23:10:11.728Z,92.90
2018-01-18T23:12:38.011Z,93.20
2018-01-18T23:15:04.257Z,93.10
2018-01-18T23:17:30.861Z,93.60
2018-01-18T23:19:57.209Z,93.60
2018-01-18T23:22:23.450Z,94.10
2018-01-18T23:24:49.757Z,93.00
2018-01-18T23:27:16.001Z,92.60
2018-01-18T23:29:42.712Z,92.20
2018-01-18T23:32:08.944Z,92.20
2018-01-18T23:34:35.213Z,92.10
2018-01-18T23:37:01.472Z,93.40
2018-01-18T23:39:27.704Z,93.20
2018-01-18T23:41:53.988Z,92.40
2018-01-18T23:44:20.667Z,91.70
2018-01-18T23:46:46.909Z,91.70
2018-01-18T23:49:13.195Z,91.40
2018-01-18T23:51:39.841Z,91.40
2018-01-18T23:54:06.040Z,91.40
2018-01-18T23:56:33.149Z,91.30
2018-01-18T23:58:59.422Z,91.30
